createdAt,value
2023-01-19T00:00:20.863Z,0
2023-01-19T00:01:30.693Z,0
2023-01-19T00:02:30.033Z,0
2023-01-19T00:03:24.806Z,0
2023-01-19T00:04:29.415Z,0
2023-01-19T00:05:35.684Z,0
2023-01-19T00:06:27.500Z,0
2023-01-19T00:07:22.838Z,0
2023-01-19T00:08:37.079Z,0
2023-01-19T00:09:29.576Z,0
2023-01-19T00:10:26.402Z,0
2023-01-19T00:11:24.424Z,0
2023-01-19T00:12:31.788Z,0
2023-01-19T00:13:26.457Z,0
2023-01-19T00:14:21.511Z,0
2023-01-19T00:15:24.987Z,0
2023-01-19T00:16:27.252Z,0
2023-01-19T00:17:22.700Z,0
2023-01-19T00:18:26.247Z,0
2023-01-19T00:19:30.291Z,0
2023-01-19T00:20:25.170Z,0
2023-01-19T00:21:20.717Z,0
2023-01-19T00:22:25.993Z,0
2023-01-19T00:23:26.581Z,0
2023-01-19T00:24:25.391Z,0
2023-01-19T00:25:29.353Z,0
2023-01-19T00:26:24.877Z,0
2023-01-19T00:27:24.519Z,0
2023-01-19T00:28:20.745Z,0
2023-01-19T00:29:32.646Z,0
2023-01-19T00:30:22.770Z,0
2023-01-19T00:31:25.162Z,0
2023-01-19T00:32:24.414Z,0
2023-01-19T00:33:30.640Z,0
2023-01-19T00:34:24.472Z,0
2023-01-19T00:35:22.802Z,0
2023-01-19T00:36:30.893Z,0
2023-01-19T00:37:26.960Z,0
2023-01-19T00:38:24.659Z,0
2023-01-19T00:39:32.712Z,0
2023-01-19T00:40:30.448Z,0
2023-01-19T00:41:26.914Z,0
2023-01-19T00:42:20.523Z,0
2023-01-19T00:43:22.612Z,0
2023-01-19T00:44:26.909Z,0
2023-01-19T00:45:24.156Z,0
2023-01-19T00:46:19.631Z,0
2023-01-19T00:47:28.919Z,0
2023-01-19T00:48:27.771Z,0
2023-01-19T00:49:21.651Z,0
2023-01-19T00:50:31.486Z,0
2023-01-19T00:51:29.557Z,0
2023-01-19T00:52:23.623Z,0
2023-01-19T00:53:24.918Z,0
2023-01-19T00:54:28.681Z,0
2023-01-19T00:55:25.548Z,0
2023-01-19T00:56:23.025Z,0
2023-01-19T00:57:32.612Z,0
2023-01-19T00:58:26.731Z,0
2023-01-19T00:59:24.988Z,0
2023-01-19T01:00:23.784Z,0
2023-01-19T01:01:45.429Z,0
2023-01-19T01:02:26.105Z,0
2023-01-19T01:03:22.430Z,0
2023-01-19T01:04:22.799Z,0
2023-01-19T01:05:26.745Z,0
2023-01-19T01:06:24.413Z,0
2023-01-19T01:07:34.176Z,0
2023-01-19T01:08:23.064Z,0
2023-01-19T01:09:26.865Z,0
2023-01-19T01:10:20.996Z,0
2023-01-19T01:11:21.755Z,0
2023-01-19T01:12:28.439Z,0
2023-01-19T01:13:26.233Z,0
2023-01-19T01:14:34.088Z,0
2023-01-19T01:15:29.289Z,0
2023-01-19T01:16:20.465Z,0
2023-01-19T01:17:22.831Z,0
2023-01-19T01:18:30.996Z,0
2023-01-19T01:19:22.421Z,0
2023-01-19T01:20:22.754Z,0
2023-01-19T01:21:35.492Z,0
2023-01-19T01:22:22.295Z,0
2023-01-19T01:23:24.652Z,0
2023-01-19T01:24:21.514Z,0
2023-01-19T01:25:33.105Z,0
2023-01-19T01:26:27.862Z,0
2023-01-19T01:27:24.748Z,0
2023-01-19T01:28:34.198Z,0
2023-01-19T01:29:25.109Z,0
2023-01-19T01:30:25.356Z,0
2023-01-19T01:31:21.884Z,0
2023-01-19T01:32:32.895Z,0
2023-01-19T01:33:40.508Z,0
2023-01-19T01:34:23.071Z,0
2023-01-19T01:35:32.859Z,0
2023-01-19T01:36:28.960Z,0
2023-01-19T01:37:25.044Z,0
2023-01-19T01:38:20.676Z,0
2023-01-19T01:39:19.353Z,0
2023-01-19T01:40:22.913Z,0
2023-01-19T01:41:25.496Z,0
2023-01-19T01:42:22.257Z,0
2023-01-19T01:43:33.056Z,0
2023-01-19T01:44:24.918Z,0
2023-01-19T01:45:22.711Z,0
2023-01-19T01:46:24.432Z,0
2023-01-19T01:47:26.869Z,0
2023-01-19T01:48:22.988Z,0
2023-01-19T01:49:24.359Z,0
2023-01-19T01:50:29.853Z,0
2023-01-19T01:51:20.702Z,0
2023-01-19T01:52:22.676Z,0
2023-01-19T01:53:30.225Z,0
2023-01-19T01:54:20.564Z,0
2023-01-19T01:55:23.252Z,0
2023-01-19T01:56:23.118Z,0
2023-01-19T01:57:21.594Z,0
2023-01-19T01:58:25.982Z,0
2023-01-19T01:59:22.602Z,0
2023-01-19T02:00:31.835Z,0
2023-01-19T02:10:32.944Z,0
2023-01-19T02:17:35.250Z,0
2023-01-19T02:18:29.456Z,0
2023-01-19T02:19:28.597Z,0
2023-01-19T02:20:22.732Z,0
2023-01-19T02:21:32.424Z,0
2023-01-19T02:22:26.971Z,0
2023-01-19T02:23:22.942Z,0
2023-01-19T02:24:20.517Z,0
2023-01-19T02:25:29.145Z,0
2023-01-19T02:26:24.768Z,0
2023-01-19T02:27:25.456Z,0
2023-01-19T02:28:32.833Z,0
2023-01-19T02:29:26.753Z,0
2023-01-19T02:30:26.943Z,0
2023-01-19T02:31:29.804Z,0
2023-01-19T02:32:20.771Z,0
2023-01-19T02:33:24.765Z,0
2023-01-19T02:34:22.128Z,0
2023-01-19T02:35:20.105Z,0
2023-01-19T02:36:29.750Z,0
2023-01-19T02:37:23.457Z,0
2023-01-19T02:38:22.835Z,0
2023-01-19T02:39:26.638Z,0
2023-01-19T02:40:25.350Z,0
2023-01-19T02:41:22.360Z,0
2023-01-19T02:42:26.201Z,0
2023-01-19T02:43:27.874Z,0
2023-01-19T02:44:26.024Z,0
2023-01-19T02:45:24.746Z,0
2023-01-19T02:46:30.261Z,0
2023-01-19T02:47:29.115Z,0
2023-01-19T02:48:21.847Z,0
2023-01-19T02:49:31.659Z,0
2023-01-19T02:50:21.242Z,0
2023-01-19T02:51:23.191Z,0
2023-01-19T02:52:27.104Z,0
2023-01-19T02:53:29.000Z,0
2023-01-19T02:54:26.635Z,0
2023-01-19T02:55:23.219Z,0
2023-01-19T02:56:22.550Z,0
2023-01-19T02:57:27.047Z,0
2023-01-19T02:58:24.116Z,0
2023-01-19T02:59:31.561Z,0
2023-01-19T03:00:29.076Z,0
2023-01-19T03:01:25.223Z,0
2023-01-19T03:02:25.278Z,0
2023-01-19T03:03:25.108Z,0
2023-01-19T03:04:29.688Z,0
2023-01-19T03:05:23.039Z,0
2023-01-19T03:06:33.346Z,0
2023-01-19T03:07:21.344Z,0
2023-01-19T03:08:24.995Z,0
2023-01-19T03:09:21.585Z,0
2023-01-19T03:10:22.238Z,0
2023-01-19T03:11:27.269Z,0
2023-01-19T03:12:23.030Z,0
2023-01-19T03:13:37.653Z,0
2023-01-19T03:14:23.655Z,0
2023-01-19T03:15:28.174Z,0
2023-01-19T03:16:21.915Z,0
2023-01-19T03:17:25.450Z,0
2023-01-19T03:18:29.035Z,0
2023-01-19T03:19:22.997Z,0
2023-01-19T03:20:23.920Z,0
2023-01-19T03:21:26.215Z,0
2023-01-19T03:22:25.035Z,0
2023-01-19T03:23:22.195Z,0
2023-01-19T03:24:35.114Z,0
2023-01-19T03:25:22.837Z,0
2023-01-19T03:26:23.489Z,0
2023-01-19T03:27:27.980Z,0
2023-01-19T03:28:21.750Z,0
2023-01-19T03:29:25.355Z,0
2023-01-19T03:30:21.991Z,0
2023-01-19T03:31:35.333Z,0
2023-01-19T03:32:24.189Z,0
2023-01-19T03:33:20.418Z,0
2023-01-19T03:34:34.911Z,0
2023-01-19T03:35:25.358Z,0
2023-01-19T03:36:25.242Z,0
2023-01-19T03:37:20.884Z,0
2023-01-19T03:38:33.941Z,0
2023-01-19T03:39:27.277Z,0
2023-01-19T03:40:24.453Z,0
2023-01-19T03:41:35.195Z,0
2023-01-19T03:42:29.065Z,0
2023-01-19T03:43:22.083Z,0
2023-01-19T03:44:21.923Z,0
2023-01-19T03:45:31.087Z,0
2023-01-19T03:46:31.625Z,0
2023-01-19T03:47:23.950Z,0
2023-01-19T03:48:23.412Z,0
2023-01-19T03:49:34.149Z,0
2023-01-19T03:50:41.016Z,0
2023-01-19T03:51:21.701Z,0
2023-01-19T03:52:32.684Z,0
2023-01-19T03:53:27.058Z,0
2023-01-19T03:54:24.448Z,0
2023-01-19T03:55:26.094Z,0
2023-01-19T03:56:29.247Z,0
2023-01-19T03:57:27.114Z,0
2023-01-19T03:58:22.302Z,0
2023-01-19T03:59:31.003Z,0
2023-01-19T04:00:29.694Z,0
2023-01-19T04:01:24.428Z,0
2023-01-19T04:02:30.429Z,0
2023-01-19T04:03:23.262Z,0
2023-01-19T04:04:25.040Z,0
2023-01-19T04:05:21.870Z,0
2023-01-19T04:06:32.598Z,0
2023-01-19T04:07:28.528Z,0
2023-01-19T04:08:23.257Z,0
2023-01-19T04:09:35.131Z,0
2023-01-19T04:10:30.130Z,0
2023-01-19T04:11:20.335Z,0
2023-01-19T04:12:21.395Z,0
2023-01-19T04:13:23.628Z,0
2023-01-19T04:14:28.264Z,0
2023-01-19T04:15:23.053Z,0
2023-01-19T04:16:33.345Z,0
2023-01-19T04:17:33.125Z,0
2023-01-19T04:18:24.973Z,0
2023-01-19T04:19:24.301Z,0
2023-01-19T04:20:28.723Z,0
2023-01-19T04:21:20.100Z,0
2023-01-19T04:22:22.989Z,0
2023-01-19T04:23:36.961Z,0
2023-01-19T04:24:30.079Z,0
2023-01-19T04:25:26.872Z,0
2023-01-19T04:26:22.144Z,0
2023-01-19T04:27:30.719Z,0
2023-01-19T04:28:29.131Z,0
2023-01-19T04:29:24.030Z,0
2023-01-19T04:30:22.455Z,0
2023-01-19T04:31:31.752Z,0
2023-01-19T04:32:25.361Z,0
2023-01-19T04:33:23.043Z,0
2023-01-19T04:34:31.266Z,0
2023-01-19T04:35:28.342Z,0
2023-01-19T04:36:25.357Z,0
2023-01-19T04:37:25.951Z,0
2023-01-19T04:38:29.321Z,0
2023-01-19T04:39:26.962Z,0
2023-01-19T04:40:21.552Z,0
2023-01-19T04:41:24.876Z,0
2023-01-19T04:42:27.497Z,0
2023-01-19T04:43:26.143Z,0
2023-01-19T04:44:27.939Z,0
2023-01-19T04:45:31.135Z,0
2023-01-19T04:46:25.984Z,0
2023-01-19T04:47:23.427Z,0
2023-01-19T04:48:23.242Z,0
2023-01-19T04:49:20.884Z,0
2023-01-19T04:50:20.536Z,0
2023-01-19T04:51:23.982Z,0
2023-01-19T04:52:29.187Z,0
2023-01-19T04:53:27.089Z,0
2023-01-19T04:54:21.437Z,0
2023-01-19T04:55:26.517Z,0
2023-01-19T04:56:28.485Z,0
2023-01-19T04:57:24.007Z,0
2023-01-19T04:58:26.276Z,0
2023-01-19T04:59:23.229Z,0
2023-01-19T05:00:41.062Z,0
2023-01-19T05:01:22.471Z,0
2023-01-19T05:02:32.822Z,0
2023-01-19T05:03:29.217Z,0
2023-01-19T05:04:23.227Z,0
2023-01-19T05:05:30.257Z,0
2023-01-19T05:06:25.896Z,0
2023-01-19T05:07:25.663Z,0
2023-01-19T05:08:21.161Z,0
2023-01-19T05:09:34.097Z,0
2023-01-19T05:10:27.076Z,0
2023-01-19T05:11:25.234Z,0
2023-01-19T05:12:19.747Z,0
2023-01-19T05:13:29.499Z,0
2023-01-19T05:14:22.161Z,0
2023-01-19T05:15:21.160Z,0
2023-01-19T05:16:32.284Z,0
2023-01-19T05:17:23.674Z,0
2023-01-19T05:18:25.273Z,0
2023-01-19T05:19:23.951Z,0
2023-01-19T05:20:30.974Z,0
2023-01-19T05:21:25.968Z,0
2023-01-19T05:22:23.095Z,0
2023-01-19T05:23:32.961Z,0
2023-01-19T05:24:27.473Z,0
2023-01-19T05:25:24.100Z,0
2023-01-19T05:26:29.698Z,0
2023-01-19T05:27:20.945Z,0
2023-01-19T05:28:20.839Z,0
2023-01-19T05:29:21.539Z,0
2023-01-19T05:30:31.244Z,0
2023-01-19T05:31:29.934Z,0
2023-01-19T05:32:40.799Z,0
2023-01-19T05:33:33.316Z,0
2023-01-19T05:34:25.076Z,0
2023-01-19T05:35:35.347Z,0
2023-01-19T05:36:21.547Z,0
2023-01-19T05:37:33.105Z,0
2023-01-19T05:38:35.474Z,0
2023-01-19T05:39:24.906Z,0
2023-01-19T05:40:34.565Z,0
2023-01-19T05:41:26.215Z,0
2023-01-19T05:42:26.386Z,0
2023-01-19T05:43:21.450Z,0
2023-01-19T05:44:24.039Z,0
2023-01-19T05:45:27.319Z,0
2023-01-19T05:46:23.533Z,0
2023-01-19T05:47:33.123Z,0
2023-01-19T05:48:30.699Z,0
2023-01-19T05:49:28.935Z,0
2023-01-19T05:50:21.409Z,0
2023-01-19T05:51:26.964Z,0
2023-01-19T05:52:25.716Z,0
2023-01-19T05:53:24.362Z,0
2023-01-19T05:54:34.269Z,0
2023-01-19T05:55:31.485Z,0
2023-01-19T05:56:25.682Z,0
2023-01-19T05:57:24.050Z,0
2023-01-19T05:58:31.525Z,0
2023-01-19T05:59:23.023Z,0
2023-01-19T06:00:23.419Z,0
2023-01-19T06:01:34.857Z,0
2023-01-19T06:02:29.858Z,0
2023-01-19T06:03:22.613Z,0
2023-01-19T06:04:22.437Z,0
2023-01-19T06:05:21.545Z,0
2023-01-19T06:06:27.806Z,0
2023-01-19T06:07:20.195Z,0
2023-01-19T06:08:34.762Z,0
2023-01-19T06:09:26.065Z,0
2023-01-19T06:10:26.530Z,0
2023-01-19T06:11:21.864Z,0
2023-01-19T06:12:26.305Z,0
2023-01-19T06:13:27.544Z,0
2023-01-19T06:14:24.169Z,0
2023-01-19T06:15:20.591Z,0
2023-01-19T06:16:30.351Z,0
2023-01-19T06:17:27.452Z,0
2023-01-19T06:18:21.191Z,0
2023-01-19T06:19:31.442Z,0
2023-01-19T06:20:22.910Z,0
2023-01-19T06:21:24.953Z,0
2023-01-19T06:22:23.355Z,0
2023-01-19T06:23:30.735Z,0
2023-01-19T06:24:25.562Z,0
2023-01-19T06:25:22.316Z,0
2023-01-19T06:26:29.054Z,0
2023-01-19T06:27:27.581Z,0
2023-01-19T06:28:21.910Z,0
2023-01-19T06:29:28.755Z,0
2023-01-19T06:30:30.023Z,0
2023-01-19T06:31:25.512Z,0
2023-01-19T06:32:21.594Z,0
2023-01-19T06:33:21.611Z,0
2023-01-19T06:34:29.292Z,0
2023-01-19T06:35:25.081Z,0
2023-01-19T06:36:19.630Z,0
2023-01-19T06:37:25.851Z,0
2023-01-19T06:38:25.607Z,0
2023-01-19T06:39:23.693Z,0
2023-01-19T06:40:24.331Z,0
2023-01-19T06:41:27.766Z,0
2023-01-19T06:42:25.803Z,0
2023-01-19T06:43:22.382Z,0
2023-01-19T06:44:26.861Z,0
2023-01-19T06:45:26.085Z,-0
2023-01-19T06:46:22.195Z,-0
2023-01-19T06:47:28.442Z,-0
2023-01-19T06:48:21.566Z,0
2023-01-19T06:49:25.123Z,0
2023-01-19T06:50:19.508Z,0
2023-01-19T06:51:22.615Z,0
2023-01-19T06:52:25.342Z,0
2023-01-19T06:53:21.500Z,0
2023-01-19T06:54:27.516Z,0
2023-01-19T06:55:27.937Z,0
2023-01-19T06:56:25.220Z,0
2023-01-19T06:57:19.455Z,0
2023-01-19T06:58:24.981Z,0
2023-01-19T06:59:27.355Z,0
2023-01-19T07:00:21.388Z,0
2023-01-19T07:01:34.749Z,0
2023-01-19T07:02:26.388Z,0
2023-01-19T07:03:25.355Z,0
2023-01-19T07:04:19.555Z,0
2023-01-19T07:05:23.471Z,0
2023-01-19T07:06:20.476Z,0
2023-01-19T07:07:24.049Z,0
2023-01-19T07:08:31.665Z,0
2023-01-19T07:09:29.494Z,0
2023-01-19T07:10:23.911Z,0
2023-01-19T07:11:25.392Z,0
2023-01-19T07:12:33.051Z,0
2023-01-19T07:13:25.768Z,0
2023-01-19T07:14:21.342Z,0
2023-01-19T07:15:21.006Z,0
2023-01-19T07:16:20.714Z,0
2023-01-19T07:17:23.695Z,0
2023-01-19T07:18:19.273Z,0
2023-01-19T07:19:31.230Z,0
2023-01-19T07:20:21.427Z,0
2023-01-19T07:21:22.197Z,0
2023-01-19T07:22:26.702Z,0
2023-01-19T07:23:29.277Z,0
2023-01-19T07:24:23.995Z,0
2023-01-19T07:25:19.728Z,0
2023-01-19T07:26:30.936Z,0
2023-01-19T07:27:25.673Z,0
2023-01-19T07:28:22.934Z,0
2023-01-19T07:29:32.904Z,0
2023-01-19T07:30:22.703Z,0
2023-01-19T07:31:24.004Z,0
2023-01-19T07:32:19.758Z,0
2023-01-19T07:33:23.364Z,0
2023-01-19T07:34:29.120Z,0
2023-01-19T07:35:21.684Z,0
2023-01-19T07:36:24.064Z,0
2023-01-19T07:37:28.770Z,1
2023-01-19T07:38:23.455Z,1
2023-01-19T07:39:19.837Z,1
2023-01-19T07:40:29.407Z,1
2023-01-19T07:41:26.664Z,1
2023-01-19T07:42:21.602Z,1
2023-01-19T07:43:29.027Z,1
2023-01-19T07:44:21.313Z,1
2023-01-19T07:45:27.889Z,1
2023-01-19T07:46:20.225Z,1
2023-01-19T07:47:29.977Z,1
2023-01-19T07:48:27.306Z,1
2023-01-19T07:49:21.619Z,1
2023-01-19T07:50:24.375Z,1
2023-01-19T07:51:27.388Z,1
2023-01-19T07:52:23.505Z,1
2023-01-19T07:53:20.143Z,1
2023-01-19T07:54:31.586Z,1
2023-01-19T07:55:25.559Z,1
2023-01-19T07:56:23.564Z,1
2023-01-19T07:57:31.743Z,1
2023-01-19T07:58:29.568Z,2
2023-01-19T07:59:23.431Z,2
2023-01-19T08:00:19.472Z,2
2023-01-19T08:01:22.119Z,2
2023-01-19T08:02:27.539Z,2
2023-01-19T08:03:21.398Z,2
2023-01-19T08:04:33.721Z,2
2023-01-19T08:05:28.415Z,3
2023-01-19T08:06:28.816Z,3
2023-01-19T08:07:21.553Z,3
2023-01-19T08:08:21.508Z,3
2023-01-19T08:09:25.825Z,3
2023-01-19T08:10:21.361Z,4
2023-01-19T08:11:33.588Z,4
2023-01-19T08:12:27.722Z,4
2023-01-19T08:13:24.579Z,4
2023-01-19T08:14:20.149Z,4
2023-01-19T08:15:25.573Z,4
2023-01-19T08:16:25.783Z,4
2023-01-19T08:17:22.263Z,5
2023-01-19T08:18:23.151Z,5
2023-01-19T08:19:29.616Z,5
2023-01-19T08:20:23.733Z,5
2023-01-19T08:21:21.251Z,5
2023-01-19T08:22:21.240Z,5
2023-01-19T08:23:22.062Z,5
2023-01-19T08:24:23.473Z,5
2023-01-19T08:25:22.787Z,5
2023-01-19T08:26:28.384Z,5
2023-01-19T08:27:25.513Z,5
2023-01-19T08:28:19.874Z,5
2023-01-19T08:29:21.348Z,6
2023-01-19T08:30:26.681Z,7
2023-01-19T08:31:24.715Z,7
2023-01-19T08:32:25.349Z,7
2023-01-19T08:33:27.541Z,7
2023-01-19T08:34:24.475Z,7
2023-01-19T08:35:21.508Z,7
2023-01-19T08:36:20.552Z,7
2023-01-19T08:37:27.087Z,7
2023-01-19T08:38:26.005Z,7
2023-01-19T08:39:28.302Z,7
2023-01-19T08:40:28.227Z,7
2023-01-19T08:41:23.588Z,8
2023-01-19T08:42:19.657Z,8
2023-01-19T08:43:23.290Z,8
2023-01-19T08:44:29.469Z,8
2023-01-19T08:45:22.257Z,8
2023-01-19T08:46:22.479Z,8
2023-01-19T08:47:27.665Z,8
2023-01-19T08:48:23.605Z,9
2023-01-19T08:49:20.917Z,9
2023-01-19T08:50:27.661Z,9
2023-01-19T08:51:25.486Z,9
2023-01-19T08:52:24.268Z,9
2023-01-19T08:53:25.302Z,9
2023-01-19T08:54:21.724Z,9
2023-01-19T08:55:25.128Z,8
2023-01-19T08:56:20.803Z,8
2023-01-19T08:57:30.046Z,8
2023-01-19T08:58:27.690Z,7
2023-01-19T08:59:21.685Z,7
2023-01-19T09:00:22.861Z,7
2023-01-19T09:01:21.175Z,7
2023-01-19T09:02:23.507Z,7
2023-01-19T09:03:19.740Z,6
2023-01-19T09:04:34.670Z,6
2023-01-19T09:05:26.548Z,6
2023-01-19T09:06:22.900Z,6
2023-01-19T09:07:28.259Z,6
2023-01-19T09:08:27.902Z,6
2023-01-19T09:09:24.434Z,6
2023-01-19T09:10:19.479Z,5
2023-01-19T09:11:29.719Z,5
2023-01-19T09:12:22.143Z,5
2023-01-19T09:13:23.845Z,5
2023-01-19T09:14:21.278Z,5
2023-01-19T09:15:23.578Z,5
2023-01-19T09:16:23.917Z,5
2023-01-19T09:17:20.076Z,5
2023-01-19T09:18:31.252Z,5
2023-01-19T09:19:25.968Z,5
2023-01-19T09:20:21.962Z,5
2023-01-19T09:21:34.286Z,5
2023-01-19T09:22:27.691Z,6
2023-01-19T09:23:27.720Z,6
2023-01-19T09:24:19.887Z,6
2023-01-19T09:25:31.488Z,6
2023-01-19T09:26:33.292Z,6
2023-01-19T09:27:21.863Z,7
2023-01-19T09:28:33.072Z,7
2023-01-19T09:29:31.850Z,8
2023-01-19T09:30:24.785Z,8
2023-01-19T09:31:20.051Z,9
2023-01-19T09:32:30.876Z,9
2023-01-19T09:33:26.368Z,10
2023-01-19T09:34:23.951Z,11
2023-01-19T09:35:31.536Z,12
2023-01-19T09:36:27.617Z,13
2023-01-19T09:37:23.764Z,13
2023-01-19T09:38:21.876Z,13
2023-01-19T09:39:21.168Z,13
2023-01-19T09:40:26.827Z,14
2023-01-19T09:41:21.685Z,14
2023-01-19T09:42:20.454Z,13
2023-01-19T09:43:29.961Z,13
2023-01-19T09:44:23.780Z,12
2023-01-19T09:45:21.471Z,12
2023-01-19T09:46:25.104Z,12
2023-01-19T09:47:26.944Z,13
2023-01-19T09:48:25.506Z,14
2023-01-19T09:49:33.705Z,15
2023-01-19T09:50:28.159Z,16
2023-01-19T09:51:25.598Z,16
2023-01-19T09:52:19.730Z,18
2023-01-19T09:53:25.468Z,19
2023-01-19T09:54:21.287Z,22
2023-01-19T09:55:21.559Z,23
2023-01-19T09:56:32.753Z,23
2023-01-19T09:57:29.838Z,22
2023-01-19T09:58:23.605Z,21
2023-01-19T09:59:23.612Z,21
2023-01-19T10:00:33.463Z,21
2023-01-19T10:01:20.855Z,21
2023-01-19T10:02:21.801Z,20
2023-01-19T10:03:33.210Z,20
2023-01-19T10:04:27.905Z,19
2023-01-19T10:05:26.456Z,19
2023-01-19T10:06:19.562Z,19
2023-01-19T10:07:32.225Z,18
2023-01-19T10:08:31.371Z,16
2023-01-19T10:09:22.549Z,16
2023-01-19T10:10:21.327Z,16
2023-01-19T10:11:34.498Z,16
2023-01-19T10:12:25.042Z,17
2023-01-19T10:13:20.054Z,17
2023-01-19T10:14:29.766Z,19
2023-01-19T10:15:26.468Z,20
2023-01-19T10:16:26.941Z,21
2023-01-19T10:17:34.304Z,23
2023-01-19T10:18:28.618Z,23
2023-01-19T10:19:25.340Z,22
2023-01-19T10:20:20.105Z,22
2023-01-19T10:21:29.644Z,22
2023-01-19T10:22:25.828Z,22
2023-01-19T10:23:22.199Z,22
2023-01-19T10:24:20.774Z,22
2023-01-19T10:25:29.807Z,22
2023-01-19T10:26:24.655Z,22
2023-01-19T10:27:21.092Z,22
2023-01-19T10:28:34.414Z,23
2023-01-19T10:29:27.152Z,23
2023-01-19T10:30:21.872Z,23
2023-01-19T10:31:24.115Z,23
2023-01-19T10:32:20.111Z,23
2023-01-19T10:33:25.890Z,23
2023-01-19T10:34:23.190Z,22
2023-01-19T10:35:29.678Z,22
2023-01-19T10:36:27.701Z,22
2023-01-19T10:37:21.817Z,22
2023-01-19T10:38:32.037Z,22
2023-01-19T10:39:20.821Z,22
2023-01-19T10:40:23.781Z,21
2023-01-19T10:41:19.872Z,20
2023-01-19T10:42:43.714Z,20
2023-01-19T10:43:25.572Z,20
2023-01-19T10:44:24.642Z,21
2023-01-19T10:45:37.588Z,21
2023-01-19T10:46:22.576Z,22
2023-01-19T10:47:25.986Z,22
2023-01-19T10:48:20.492Z,23
2023-01-19T10:49:30.558Z,24
2023-01-19T10:50:28.434Z,24
2023-01-19T10:51:22.542Z,24
2023-01-19T10:52:32.001Z,25
2023-01-19T10:53:33.776Z,26
2023-01-19T10:54:25.433Z,27
2023-01-19T10:55:20.330Z,30
2023-01-19T10:56:29.943Z,32
2023-01-19T10:57:23.041Z,33
2023-01-19T10:58:22.388Z,33
2023-01-19T10:59:32.557Z,33
2023-01-19T11:00:28.585Z,33
2023-01-19T11:01:29.129Z,31
2023-01-19T11:02:22.174Z,29
2023-01-19T11:03:30.756Z,29
2023-01-19T11:04:28.267Z,29
2023-01-19T11:05:22.124Z,30
2023-01-19T11:06:32.725Z,30
2023-01-19T11:07:33.187Z,31
2023-01-19T11:08:24.097Z,32
2023-01-19T11:09:20.527Z,31
2023-01-19T11:10:30.400Z,32
2023-01-19T11:11:27.025Z,33
2023-01-19T11:12:22.094Z,35
2023-01-19T11:13:33.187Z,35
2023-01-19T11:14:29.471Z,37
2023-01-19T11:15:24.204Z,40
2023-01-19T11:16:20.372Z,42
2023-01-19T11:17:22.889Z,41
2023-01-19T11:18:29.520Z,37
2023-01-19T11:19:22.057Z,37
2023-01-19T11:20:31.626Z,39
2023-01-19T11:21:29.608Z,37
2023-01-19T11:22:24.496Z,34
2023-01-19T11:23:20.712Z,31
2023-01-19T11:24:33.830Z,30
2023-01-19T11:25:20.811Z,30
2023-01-19T11:26:23.058Z,30
2023-01-19T11:27:33.969Z,30
2023-01-19T11:28:27.771Z,31
2023-01-19T11:29:25.671Z,31
2023-01-19T11:30:20.642Z,29
2023-01-19T11:31:30.982Z,29
2023-01-19T11:32:27.340Z,28
2023-01-19T11:33:22.553Z,26
2023-01-19T11:34:32.219Z,25
2023-01-19T11:35:31.746Z,23
2023-01-19T11:36:23.781Z,22
2023-01-19T11:37:21.786Z,21
2023-01-19T11:38:31.613Z,22
2023-01-19T11:39:28.395Z,22
2023-01-19T11:40:23.428Z,23
2023-01-19T11:41:35.334Z,24
2023-01-19T11:42:27.652Z,26
2023-01-19T11:43:26.852Z,27
2023-01-19T11:44:21.242Z,28
2023-01-19T11:45:30.809Z,28
2023-01-19T11:46:26.775Z,27
2023-01-19T11:47:26.675Z,27
2023-01-19T11:48:32.624Z,28
2023-01-19T11:49:43.389Z,29
2023-01-19T11:50:25.488Z,31
2023-01-19T11:51:19.955Z,34
2023-01-19T11:52:32.095Z,38
2023-01-19T11:53:26.196Z,40
2023-01-19T11:54:23.561Z,35
2023-01-19T11:55:22.034Z,30
2023-01-19T11:56:28.809Z,30
2023-01-19T11:57:25.490Z,31
2023-01-19T11:58:19.782Z,34
2023-01-19T11:59:30.086Z,39
2023-01-19T12:00:27.270Z,53
2023-01-19T12:01:22.287Z,93
2023-01-19T12:02:22.377Z,85
2023-01-19T12:03:28.189Z,78
2023-01-19T12:04:24.207Z,51
2023-01-19T12:05:21.602Z,60
2023-01-19T12:06:31.602Z,52
2023-01-19T12:07:26.168Z,48
2023-01-19T12:08:23.340Z,41
2023-01-19T12:09:24.587Z,26
2023-01-19T12:10:25.113Z,20
2023-01-19T12:11:24.631Z,20
2023-01-19T12:12:33.758Z,22
2023-01-19T12:13:19.388Z,23
2023-01-19T12:14:27.655Z,17
2023-01-19T12:15:22.164Z,17
2023-01-19T12:16:27.804Z,19
2023-01-19T12:17:29.246Z,21
2023-01-19T12:18:20.272Z,15
2023-01-19T12:19:37.707Z,20
2023-01-19T12:20:22.550Z,20
2023-01-19T12:21:28.455Z,29
2023-01-19T12:22:22.187Z,17
2023-01-19T12:23:31.929Z,28
2023-01-19T12:24:33.791Z,22
2023-01-19T12:25:24.532Z,22
2023-01-19T12:26:35.398Z,14
2023-01-19T12:27:25.582Z,33
2023-01-19T12:28:41.796Z,43
2023-01-19T12:29:23.664Z,46
2023-01-19T12:30:33.758Z,50
2023-01-19T12:31:20.768Z,46
2023-01-19T12:32:23.946Z,47
2023-01-19T12:33:23.745Z,28
2023-01-19T12:34:33.097Z,18
2023-01-19T12:35:26.567Z,15
2023-01-19T12:36:37.267Z,13
2023-01-19T12:37:36.399Z,13
2023-01-19T12:38:23.699Z,21
2023-01-19T12:39:25.031Z,27
2023-01-19T12:40:20.682Z,16
2023-01-19T12:41:32.268Z,35
2023-01-19T12:42:26.083Z,40
2023-01-19T12:43:38.577Z,40
2023-01-19T12:44:32.365Z,37
2023-01-19T12:45:28.413Z,36
2023-01-19T12:46:24.074Z,35
2023-01-19T12:47:30.381Z,35
2023-01-19T12:48:25.710Z,36
2023-01-19T12:49:22.270Z,16
2023-01-19T12:50:56.993Z,17
2023-01-19T12:51:43.748Z,10
2023-01-19T12:52:32.214Z,8
2023-01-19T12:53:21.205Z,8
2023-01-19T12:54:37.032Z,9
2023-01-19T12:55:30.214Z,9
2023-01-19T12:56:20.974Z,19
2023-01-19T12:57:22.442Z,27
2023-01-19T12:58:33.919Z,21
2023-01-19T12:59:26.757Z,25
2023-01-19T13:00:20.957Z,27
2023-01-19T13:01:40.822Z,29
2023-01-19T13:02:32.168Z,28
2023-01-19T13:03:27.700Z,27
2023-01-19T13:05:03.759Z,29
2023-01-19T13:05:33.689Z,18
2023-01-19T13:06:37.150Z,18
2023-01-19T13:07:24.085Z,27
2023-01-19T13:08:45.467Z,31
2023-01-19T13:09:38.189Z,14
2023-01-19T13:10:24.860Z,9
2023-01-19T13:11:24.348Z,9
2023-01-19T13:12:50.553Z,13
2023-01-19T13:13:30.092Z,9
2023-01-19T13:14:25.811Z,8
2023-01-19T13:15:49.559Z,7
2023-01-19T13:16:29.289Z,6
2023-01-19T13:17:25.978Z,6
2023-01-19T13:18:23.710Z,5
2023-01-19T13:19:20.074Z,5
2023-01-19T13:20:29.939Z,5
2023-01-19T13:21:19.887Z,4
2023-01-19T13:22:20.237Z,4
2023-01-19T13:23:31.664Z,4
2023-01-19T13:24:25.987Z,4
2023-01-19T13:25:23.686Z,4
2023-01-19T13:26:21.047Z,3
2023-01-19T13:27:25.444Z,3
2023-01-19T13:28:23.998Z,3
2023-01-19T13:29:20.207Z,3
2023-01-19T13:30:31.734Z,3
2023-01-19T13:31:26.127Z,3
2023-01-19T13:32:21.995Z,3
2023-01-19T13:33:26.824Z,3
2023-01-19T13:34:21.248Z,3
2023-01-19T13:35:24.718Z,3
2023-01-19T13:36:21.625Z,3
2023-01-19T13:37:29.900Z,3
2023-01-19T13:38:23.368Z,4
2023-01-19T13:39:21.987Z,4
2023-01-19T13:40:29.158Z,4
2023-01-19T13:41:24.796Z,4
2023-01-19T13:42:24.019Z,4
2023-01-19T13:43:20.284Z,4
2023-01-19T13:44:28.680Z,4
2023-01-19T13:45:26.159Z,4
2023-01-19T13:46:24.244Z,4
2023-01-19T13:47:19.574Z,4
2023-01-19T13:48:29.996Z,4
2023-01-19T13:49:23.899Z,4
2023-01-19T13:50:20.599Z,4
2023-01-19T13:51:30.898Z,4
2023-01-19T13:52:27.996Z,4
2023-01-19T13:53:22.222Z,4
2023-01-19T13:54:22.788Z,4
2023-01-19T13:55:25.684Z,4
2023-01-19T13:56:28.590Z,4
2023-01-19T13:57:20.143Z,4
2023-01-19T13:58:31.429Z,4
2023-01-19T13:59:26.297Z,4
2023-01-19T14:00:22.078Z,4
2023-01-19T14:01:29.230Z,4
2023-01-19T14:02:28.219Z,4
2023-01-19T14:03:27.103Z,4
2023-01-19T14:04:21.924Z,4
2023-01-19T14:05:20.781Z,4
2023-01-19T14:06:22.680Z,4
2023-01-19T14:07:22.918Z,4
2023-01-19T14:08:29.064Z,4
2023-01-19T14:09:29.284Z,4
2023-01-19T14:10:24.310Z,4
2023-01-19T14:11:20.372Z,4
2023-01-19T14:12:25.945Z,4
2023-01-19T14:13:27.008Z,4
2023-01-19T14:14:38.879Z,4
2023-01-19T14:15:32.847Z,4
2023-01-19T14:16:30.030Z,4
2023-01-19T14:17:24.222Z,4
2023-01-19T14:18:21.927Z,4
2023-01-19T14:19:21.127Z,4
2023-01-19T14:20:26.607Z,4
2023-01-19T14:21:22.256Z,4
2023-01-19T14:22:34.563Z,4
2023-01-19T14:23:24.599Z,4
2023-01-19T14:24:24.243Z,4
2023-01-19T14:25:21.862Z,4
2023-01-19T14:26:24.694Z,4
2023-01-19T14:27:22.899Z,3
2023-01-19T14:28:22.919Z,3
2023-01-19T14:29:27.716Z,3
2023-01-19T14:30:26.232Z,3
2023-01-19T14:31:24.136Z,3
2023-01-19T14:32:22.101Z,3
2023-01-19T14:33:35.999Z,3
2023-01-19T14:34:21.788Z,3
2023-01-19T14:35:22.761Z,3
2023-01-19T14:36:32.372Z,3
2023-01-19T14:37:28.320Z,3
2023-01-19T14:38:24.062Z,2
2023-01-19T14:39:20.193Z,2
2023-01-19T14:40:26.369Z,2
2023-01-19T14:41:25.965Z,2
2023-01-19T14:42:25.614Z,2
2023-01-19T14:43:32.565Z,2
2023-01-19T14:44:30.443Z,2
2023-01-19T14:45:24.055Z,2
2023-01-19T14:46:20.117Z,2
2023-01-19T14:47:30.305Z,2
2023-01-19T14:48:26.607Z,2
2023-01-19T14:49:23.064Z,2
2023-01-19T14:50:21.957Z,2
2023-01-19T14:51:22.125Z,2
2023-01-19T14:52:22.694Z,2
2023-01-19T14:53:20.035Z,3
2023-01-19T14:54:30.419Z,3